sensor_id;sensor_type;location;lat;lon;timestamp;pressure;altitude;pressure_sealevel;temperature;humidity
33496;BME280;19836;55.812;37.560;2023-04-28T07:05:26;99085.75;;;18.78;54.60
33496;BME280;19836;55.812;37.560;2023-04-28T07:07:52;99079.59;;;18.99;54.13
33496;BME280;19836;55.812;37.560;2023-04-28T07:10:18;99082.91;;;19.15;54.02
33496;BME280;19836;55.812;37.560;2023-04-28T07:12:44;99075.47;;;19.30;53.44
33496;BME280;19836;55.812;37.560;2023-04-28T07:15:10;99082.19;;;19.37;53.36
33496;BME280;19836;55.812;37.560;2023-04-28T07:17:37;99088.41;;;19.50;53.03
33496;BME280;19836;55.812;37.560;2023-04-28T07:20:04;99091.00;;;19.51;52.93
33496;BME280;19836;55.812;37.560;2023-04-28T07:22:30;99082.84;;;19.51;52.72
33496;BME280;19836;55.812;37.560;2023-04-28T07:24:56;99085.56;;;19.51;53.01
33496;BME280;19836;55.812;37.560;2023-04-28T07:27:22;99084.22;;;19.46;53.23
33496;BME280;19836;55.812;37.560;2023-04-28T07:29:48;99097.66;;;19.71;53.12
33496;BME280;19836;55.812;37.560;2023-04-28T07:32:14;99090.13;;;19.85;52.82
33496;BME280;19836;55.812;37.560;2023-04-28T07:34:39;99092.81;;;19.74;52.55
33496;BME280;19836;55.812;37.560;2023-04-28T07:37:06;99099.66;;;19.56;53.05
33496;BME280;19836;55.812;37.560;2023-04-28T07:39:33;99099.34;;;19.37;53.28
33496;BME280;19836;55.812;37.560;2023-04-28T07:42:00;99091.91;;;19.28;53.67
33496;BME280;19836;55.812;37.560;2023-04-28T07:44:28;99109.69;;;19.32;53.68
33496;BME280;19836;55.812;37.560;2023-04-28T07:46:54;99098.81;;;19.32;53.71
33496;BME280;19836;55.812;37.560;2023-04-28T07:49:20;99105.16;;;19.44;53.66
33496;BME280;19836;55.812;37.560;2023-04-28T07:51:46;99108.34;;;19.61;53.31
33496;BME280;19836;55.812;37.560;2023-04-28T07:54:13;99105.28;;;19.66;53.29
33496;BME280;19836;55.812;37.560;2023-04-28T07:56:39;99106.84;;;19.57;53.21
33496;BME280;19836;55.812;37.560;2023-04-28T07:59:05;99103.84;;;19.49;53.56
33496;BME280;19836;55.812;37.560;2023-04-28T08:01:31;99106.13;;;19.66;53.72
33496;BME280;19836;55.812;37.560;2023-04-28T08:03:57;99114.84;;;19.82;53.53
33496;BME280;19836;55.812;37.560;2023-04-28T08:06:23;99113.72;;;20.08;52.95
33496;BME280;19836;55.812;37.560;2023-04-28T08:08:49;99102.63;;;20.33;52.46
33496;BME280;19836;55.812;37.560;2023-04-28T08:11:15;99113.38;;;20.79;51.80
33496;BME280;19836;55.812;37.560;2023-04-28T08:13:41;99102.38;;;20.91;51.46
33496;BME280;19836;55.812;37.560;2023-04-28T08:16:07;99090.88;;;20.55;51.43
33496;BME280;19836;55.812;37.560;2023-04-28T08:18:34;99104.22;;;20.25;51.86
33496;BME280;19836;55.812;37.560;2023-04-28T08:21:00;99098.72;;;20.03;52.58
33496;BME280;19836;55.812;37.560;2023-04-28T08:23:27;99097.78;;;19.80;52.93
33496;BME280;19836;55.812;37.560;2023-04-28T08:25:57;99101.47;;;19.68;53.58
33496;BME280;19836;55.812;37.560;2023-04-28T08:28:23;99085.00;;;19.35;53.87
33496;BME280;19836;55.812;37.560;2023-04-28T08:30:49;99109.06;;;19.16;54.37
33496;BME280;19836;55.812;37.560;2023-04-28T08:33:15;99103.13;;;19.11;54.79
33496;BME280;19836;55.812;37.560;2023-04-28T08:35:41;99108.59;;;18.99;55.04
33496;BME280;19836;55.812;37.560;2023-04-28T08:38:07;99100.25;;;18.53;56.19
33496;BME280;19836;55.812;37.560;2023-04-28T08:40:39;99108.03;;;17.95;58.07
33496;BME280;19836;55.812;37.560;2023-04-28T08:43:05;99105.38;;;17.56;59.70
33496;BME280;19836;55.812;37.560;2023-04-28T08:45:40;99123.28;;;17.32;61.38
33496;BME280;19836;55.812;37.560;2023-04-28T08:48:20;99119.53;;;17.21;62.63
33496;BME280;19836;55.812;37.560;2023-04-28T08:50:52;99121.13;;;17.11;63.24
33496;BME280;19836;55.812;37.560;2023-04-28T08:53:22;99118.94;;;17.03;64.12
33496;BME280;19836;55.812;37.560;2023-04-28T08:55:54;99117.75;;;17.07;64.81
33496;BME280;19836;55.812;37.560;2023-04-28T08:58:26;99116.47;;;17.13;65.12
33496;BME280;19836;55.812;37.560;2023-04-28T09:00:53;99120.00;;;17.27;65.17
33496;BME280;19836;55.812;37.560;2023-04-28T09:03:19;99114.03;;;17.49;65.01
33496;BME280;19836;55.812;37.560;2023-04-28T09:05:46;99114.75;;;17.65;64.67
33496;BME280;19836;55.812;37.560;2023-04-28T09:08:12;99116.78;;;17.74;64.56
33496;BME280;19836;55.812;37.560;2023-04-28T09:10:39;99125.28;;;17.82;64.58
33496;BME280;19836;55.812;37.560;2023-04-28T09:13:05;99124.09;;;17.86;64.35
33496;BME280;19836;55.812;37.560;2023-04-28T09:18:04;99119.94;;;17.80;63.94
33496;BME280;19836;55.812;37.560;2023-04-28T09:20:32;99111.94;;;18.04;63.83
33496;BME280;19836;55.812;37.560;2023-04-28T09:23:13;99118.91;;;18.20;63.51
33496;BME280;19836;55.812;37.560;2023-04-28T09:25:40;99120.72;;;18.20;63.21
33496;BME280;19836;55.812;37.560;2023-04-28T09:28:19;99112.41;;;18.35;63.22
33496;BME280;19836;55.812;37.560;2023-04-28T09:30:45;99113.81;;;18.66;62.89
33496;BME280;19836;55.812;37.560;2023-04-28T09:33:12;99109.16;;;19.27;62.50
33496;BME280;19836;55.812;37.560;2023-04-28T09:35:42;99123.38;;;19.89;61.62
33496;BME280;19836;55.812;37.560;2023-04-28T09:38:10;99115.91;;;20.03;60.06
33496;BME280;19836;55.812;37.560;2023-04-28T09:43:25;99109.00;;;19.41;60.20
33496;BME280;19836;55.812;37.560;2023-04-28T09:45:52;99109.88;;;19.42;60.82
33496;BME280;19836;55.812;37.560;2023-04-28T09:48:29;99112.44;;;19.67;60.37
33496;BME280;19836;55.812;37.560;2023-04-28T09:50:57;99110.56;;;19.67;59.48
33496;BME280;19836;55.812;37.560;2023-04-28T09:53:27;99112.53;;;19.54;59.31
33496;BME280;19836;55.812;37.560;2023-04-28T09:55:55;99114.84;;;19.24;59.57
33496;BME280;19836;55.812;37.560;2023-04-28T09:58:23;99117.84;;;18.96;60.18
33496;BME280;19836;55.812;37.560;2023-04-28T10:00:54;99118.94;;;18.94;60.65
33496;BME280;19836;55.812;37.560;2023-04-28T10:03:22;99123.81;;;18.89;60.70
33496;BME280;19836;55.812;37.560;2023-04-28T10:05:49;99121.69;;;18.81;60.91
33496;BME280;19836;55.812;37.560;2023-04-28T10:08:20;99115.44;;;18.68;61.17
33496;BME280;19836;55.812;37.560;2023-04-28T10:10:50;99122.63;;;18.44;61.32
33496;BME280;19836;55.812;37.560;2023-04-28T10:13:21;99124.97;;;18.24;61.50
33496;BME280;19836;55.812;37.560;2023-04-28T10:15:48;99119.78;;;18.08;61.58
33496;BME280;19836;55.812;37.560;2023-04-28T10:18:15;99119.97;;;18.05;62.01
33496;BME280;19836;55.812;37.560;2023-04-28T10:20:45;99127.47;;;18.14;62.09
33496;BME280;19836;55.812;37.560;2023-04-28T10:25:59;99121.94;;;18.28;61.97
33496;BME280;19836;55.812;37.560;2023-04-28T10:28:27;99124.75;;;18.27;62.02
33496;BME280;19836;55.812;37.560;2023-04-28T10:31:23;99129.53;;;18.23;62.06
33496;BME280;19836;55.812;37.560;2023-04-28T10:33:50;99132.25;;;18.11;62.17
33496;BME280;19836;55.812;37.560;2023-04-28T10:37:07;99133.00;;;18.00;62.70
33496;BME280;19836;55.812;37.560;2023-04-28T10:39:27;99141.22;;;17.86;63.00
33496;BME280;19836;55.812;37.560;2023-04-28T10:41:54;99154.78;;;17.47;63.89
33496;BME280;19836;55.812;37.560;2023-04-28T10:47:00;99162.91;;;16.09;68.33
33496;BME280;19836;55.812;37.560;2023-04-28T10:58:59;99162.97;;;15.34;73.72
33496;BME280;19836;55.812;37.560;2023-04-28T11:01:30;99158.63;;;15.16;74.17
33496;BME280;19836;55.812;37.560;2023-04-28T11:11:33;99165.06;;;14.98;76.10
33496;BME280;19836;55.812;37.560;2023-04-28T11:17:56;99158.09;;;15.41;77.11
33496;BME280;19836;55.812;37.560;2023-04-28T11:20:26;99157.19;;;15.56;77.30
33496;BME280;19836;55.812;37.560;2023-04-28T11:23:27;99157.09;;;15.57;77.14
33496;BME280;19836;55.812;37.560;2023-04-28T11:25:55;99158.78;;;15.44;77.26
33496;BME280;19836;55.812;37.560;2023-04-28T11:28:21;99160.88;;;15.39;77.58
33496;BME280;19836;55.812;37.560;2023-04-28T11:30:54;99154.41;;;15.42;78.38
33496;BME280;19836;55.812;37.560;2023-04-28T11:33:44;99153.53;;;15.41;78.26
33496;BME280;19836;55.812;37.560;2023-04-28T11:36:44;99146.25;;;15.43;78.39
33496;BME280;19836;55.812;37.560;2023-04-28T11:39:10;99155.69;;;15.50;78.45
33496;BME280;19836;55.812;37.560;2023-04-28T11:41:42;99169.03;;;15.53;78.78
33496;BME280;19836;55.812;37.560;2023-04-28T11:44:17;99163.44;;;15.56;79.16
33496;BME280;19836;55.812;37.560;2023-04-28T11:46:51;99167.44;;;15.65;79.52
33496;BME280;19836;55.812;37.560;2023-04-28T11:49:22;99157.53;;;15.79;79.90
33496;BME280;19836;55.812;37.560;2023-04-28T11:51:54;99159.31;;;15.94;80.32
33496;BME280;19836;55.812;37.560;2023-04-28T11:54:24;99162.34;;;16.18;79.42
33496;BME280;19836;55.812;37.560;2023-04-28T11:56:52;99158.31;;;16.53;79.05
33496;BME280;19836;55.812;37.560;2023-04-28T11:59:26;99152.81;;;16.68;78.07
33496;BME280;19836;55.812;37.560;2023-04-28T12:01:54;99156.69;;;16.64;77.50
33496;BME280;19836;55.812;37.560;2023-04-28T12:04:29;99161.25;;;16.50;77.56
33496;BME280;19836;55.812;37.560;2023-04-28T12:07:05;99161.09;;;16.23;77.07
33496;BME280;19836;55.812;37.560;2023-04-28T12:09:36;99156.31;;;15.99;77.41
33496;BME280;19836;55.812;37.560;2023-04-28T12:13:42;99150.03;;;15.84;77.96
33496;BME280;19836;55.812;37.560;2023-04-28T12:16:11;99147.50;;;15.81;78.39
33496;BME280;19836;55.812;37.560;2023-04-28T12:18:57;99156.41;;;15.83;78.14
33496;BME280;19836;55.812;37.560;2023-04-28T12:21:27;99153.94;;;15.79;78.11
33496;BME280;19836;55.812;37.560;2023-04-28T12:23:53;99158.00;;;15.72;78.19
33496;BME280;19836;55.812;37.560;2023-04-28T12:26:24;99154.41;;;15.57;77.58
33496;BME280;19836;55.812;37.560;2023-04-28T12:28:52;99150.50;;;15.47;77.29
33496;BME280;19836;55.812;37.560;2023-04-28T12:35:30;99162.25;;;15.46;76.79
33496;BME280;19836;55.812;37.560;2023-04-28T12:41:57;99162.81;;;15.37;76.85
33496;BME280;19836;55.812;37.560;2023-04-28T12:44:34;99166.63;;;15.33;76.41
33496;BME280;19836;55.812;37.560;2023-04-28T12:47:02;99158.66;;;15.30;77.14
33496;BME280;19836;55.812;37.560;2023-04-28T12:49:30;99154.88;;;15.34;77.00
33496;BME280;19836;55.812;37.560;2023-04-28T12:51:57;99154.59;;;15.39;77.30
33496;BME280;19836;55.812;37.560;2023-04-28T12:54:23;99154.78;;;15.36;77.17
33496;BME280;19836;55.812;37.560;2023-04-28T13:02:35;99164.03;;;15.16;76.39
33496;BME280;19836;55.812;37.560;2023-04-28T13:05:03;99162.47;;;15.12;76.81
33496;BME280;19836;55.812;37.560;2023-04-28T13:07:32;99161.66;;;15.10;76.79
